sensor_id;sensor_type;location;lat;lon;timestamp;pressure;altitude;pressure_sealevel;temperature;humidity
10700;BME280;5401;41.986;21.452;2023-08-24T00:00:28;98343.75;;;28.67;46.00
10700;BME280;5401;41.986;21.452;2023-08-24T00:02:55;98351.22;;;28.58;45.83
10700;BME280;5401;41.986;21.452;2023-08-24T00:05:24;98355.25;;;28.52;46.35
10700;BME280;5401;41.986;21.452;2023-08-24T00:07:51;98345.84;;;28.53;46.06
10700;BME280;5401;41.986;21.452;2023-08-24T00:10:20;98356.09;;;28.61;46.21
10700;BME280;5401;41.986;21.452;2023-08-24T00:12:48;98357.84;;;28.65;46.04
10700;BME280;5401;41.986;21.452;2023-08-24T00:15:15;98358.97;;;28.64;46.60
10700;BME280;5401;41.986;21.452;2023-08-24T00:17:43;98366.75;;;28.62;46.31
10700;BME280;5401;41.986;21.452;2023-08-24T00:20:10;98356.56;;;28.63;46.39
10700;BME280;5401;41.986;21.452;2023-08-24T00:22:39;98357.66;;;28.70;46.48
10700;BME280;5401;41.986;21.452;2023-08-24T00:25:07;98351.47;;;28.81;46.36
10700;BME280;5401;41.986;21.452;2023-08-24T00:27:36;98355.69;;;28.87;46.38
10700;BME280;5401;41.986;21.452;2023-08-24T00:30:06;98352.59;;;28.89;46.18
10700;BME280;5401;41.986;21.452;2023-08-24T00:32:34;98351.94;;;28.92;46.21
10700;BME280;5401;41.986;21.452;2023-08-24T00:35:02;98341.72;;;28.92;46.19
10700;BME280;5401;41.986;21.452;2023-08-24T00:37:30;98338.81;;;28.89;46.17
10700;BME280;5401;41.986;21.452;2023-08-24T00:40:00;98338.97;;;28.84;46.23
10700;BME280;5401;41.986;21.452;2023-08-24T00:42:29;98341.94;;;28.79;46.26
10700;BME280;5401;41.986;21.452;2023-08-24T00:44:59;98344.38;;;28.80;46.38
10700;BME280;5401;41.986;21.452;2023-08-24T00:47:27;98344.84;;;28.74;46.61
10700;BME280;5401;41.986;21.452;2023-08-24T00:49:55;98346.84;;;28.57;46.90
10700;BME280;5401;41.986;21.452;2023-08-24T00:52:24;98346.72;;;28.28;47.15
10700;BME280;5401;41.986;21.452;2023-08-24T00:54:52;98350.59;;;27.94;47.43
10700;BME280;5401;41.986;21.452;2023-08-24T00:57:20;98347.97;;;27.63;48.21
10700;BME280;5401;41.986;21.452;2023-08-24T00:59:48;98342.56;;;27.42;48.19
10700;BME280;5401;41.986;21.452;2023-08-24T01:02:17;98348.13;;;27.28;49.09
10700;BME280;5401;41.986;21.452;2023-08-24T01:04:46;98346.84;;;27.26;48.75
10700;BME280;5401;41.986;21.452;2023-08-24T01:07:14;98337.00;;;27.33;48.96
10700;BME280;5401;41.986;21.452;2023-08-24T01:09:43;98334.63;;;27.40;48.94
10700;BME280;5401;41.986;21.452;2023-08-24T01:12:17;98340.06;;;27.32;49.29
10700;BME280;5401;41.986;21.452;2023-08-24T01:14:50;98332.59;;;27.24;49.46
10700;BME280;5401;41.986;21.452;2023-08-24T01:17:24;98341.03;;;27.27;49.45
10700;BME280;5401;41.986;21.452;2023-08-24T01:19:54;98333.28;;;27.38;49.02
10700;BME280;5401;41.986;21.452;2023-08-24T01:22:32;98337.38;;;27.49;49.12
10700;BME280;5401;41.986;21.452;2023-08-24T01:25:06;98340.81;;;27.63;49.09
10700;BME280;5401;41.986;21.452;2023-08-24T01:27:36;98335.50;;;27.74;49.17
10700;BME280;5401;41.986;21.452;2023-08-24T01:30:06;98334.03;;;27.85;48.86
10700;BME280;5401;41.986;21.452;2023-08-24T01:32:35;98335.97;;;27.85;48.69
10700;BME280;5401;41.986;21.452;2023-08-24T01:35:04;98325.63;;;27.82;48.62
10700;BME280;5401;41.986;21.452;2023-08-24T01:37:33;98328.03;;;27.83;48.75
10700;BME280;5401;41.986;21.452;2023-08-24T01:40:05;98323.19;;;27.80;48.91
10700;BME280;5401;41.986;21.452;2023-08-24T01:42:41;98322.06;;;27.73;48.77
10700;BME280;5401;41.986;21.452;2023-08-24T01:45:11;98323.69;;;27.65;49.03
10700;BME280;5401;41.986;21.452;2023-08-24T01:47:41;98328.69;;;27.63;49.22
10700;BME280;5401;41.986;21.452;2023-08-24T01:50:10;98318.63;;;27.51;49.36
10700;BME280;5401;41.986;21.452;2023-08-24T01:52:37;98333.66;;;27.45;49.22
10700;BME280;5401;41.986;21.452;2023-08-24T01:55:06;98331.88;;;27.40;49.05
10700;BME280;5401;41.986;21.452;2023-08-24T01:57:33;98334.41;;;27.37;49.28
10700;BME280;5401;41.986;21.452;2023-08-24T02:00:03;98337.78;;;27.26;50.13
10700;BME280;5401;41.986;21.452;2023-08-24T02:02:34;98327.25;;;27.11;50.01
10700;BME280;5401;41.986;21.452;2023-08-24T02:05:01;98335.59;;;26.97;50.35
10700;BME280;5401;41.986;21.452;2023-08-24T02:07:29;98340.81;;;26.77;50.51
10700;BME280;5401;41.986;21.452;2023-08-24T02:09:57;98341.88;;;26.68;51.11
10700;BME280;5401;41.986;21.452;2023-08-24T02:12:24;98337.44;;;26.50;51.62
10700;BME280;5401;41.986;21.452;2023-08-24T02:14:52;98348.53;;;26.45;51.50
10700;BME280;5401;41.986;21.452;2023-08-24T02:17:21;98351.03;;;26.33;52.08
10700;BME280;5401;41.986;21.452;2023-08-24T02:19:48;98350.88;;;26.17;52.38
10700;BME280;5401;41.986;21.452;2023-08-24T02:22:16;98350.50;;;26.10;52.16
10700;BME280;5401;41.986;21.452;2023-08-24T02:24:43;98356.59;;;26.20;52.43
10700;BME280;5401;41.986;21.452;2023-08-24T02:27:11;98358.63;;;26.15;52.42
10700;BME280;5401;41.986;21.452;2023-08-24T02:29:38;98356.31;;;26.08;52.30
10700;BME280;5401;41.986;21.452;2023-08-24T02:32:06;98357.09;;;26.22;52.30
10700;BME280;5401;41.986;21.452;2023-08-24T02:34:34;98359.41;;;26.28;52.33
10700;BME280;5401;41.986;21.452;2023-08-24T02:37:02;98367.41;;;26.38;52.39
10700;BME280;5401;41.986;21.452;2023-08-24T02:39:29;98357.75;;;26.49;51.99
10700;BME280;5401;41.986;21.452;2023-08-24T02:41:57;98349.97;;;26.43;52.36
10700;BME280;5401;41.986;21.452;2023-08-24T02:44:24;98361.25;;;26.41;51.94
10700;BME280;5401;41.986;21.452;2023-08-24T02:46:53;98353.78;;;26.33;51.73
10700;BME280;5401;41.986;21.452;2023-08-24T02:49:21;98351.34;;;26.32;52.12
10700;BME280;5401;41.986;21.452;2023-08-24T02:51:50;98361.97;;;26.25;52.08
10700;BME280;5401;41.986;21.452;2023-08-24T02:54:17;98355.91;;;26.01;52.08
10700;BME280;5401;41.986;21.452;2023-08-24T02:56:45;98359.66;;;25.83;52.47
10700;BME280;5401;41.986;21.452;2023-08-24T02:59:12;98362.84;;;25.64;52.78
10700;BME280;5401;41.986;21.452;2023-08-24T03:01:40;98371.69;;;25.47;52.86
10700;BME280;5401;41.986;21.452;2023-08-24T03:04:07;98372.22;;;25.23;53.43
10700;BME280;5401;41.986;21.452;2023-08-24T03:06:35;98368.34;;;24.97;53.77
10700;BME280;5401;41.986;21.452;2023-08-24T03:09:03;98382.72;;;24.89;54.21
10700;BME280;5401;41.986;21.452;2023-08-24T03:11:31;98377.63;;;24.83;54.53
10700;BME280;5401;41.986;21.452;2023-08-24T03:13:58;98373.25;;;24.82;54.45
10700;BME280;5401;41.986;21.452;2023-08-24T03:16:26;98380.06;;;24.84;54.57
10700;BME280;5401;41.986;21.452;2023-08-24T03:18:53;98389.00;;;24.90;54.60
10700;BME280;5401;41.986;21.452;2023-08-24T03:21:21;98390.94;;;24.89;54.43
10700;BME280;5401;41.986;21.452;2023-08-24T03:23:48;98383.63;;;24.85;54.69
10700;BME280;5401;41.986;21.452;2023-08-24T03:26:18;98386.38;;;24.85;54.58
10700;BME280;5401;41.986;21.452;2023-08-24T03:28:46;98391.50;;;24.86;54.34
10700;BME280;5401;41.986;21.452;2023-08-24T03:31:13;98398.13;;;24.85;54.76
10700;BME280;5401;41.986;21.452;2023-08-24T03:33:41;98386.94;;;24.69;54.63
10700;BME280;5401;41.986;21.452;2023-08-24T03:36:08;98405.09;;;24.78;54.97
10700;BME280;5401;41.986;21.452;2023-08-24T03:38:36;98401.78;;;24.81;54.83
10700;BME280;5401;41.986;21.452;2023-08-24T03:41:03;98400.34;;;24.83;54.95
10700;BME280;5401;41.986;21.452;2023-08-24T03:43:34;98400.34;;;24.83;54.96
10700;BME280;5401;41.986;21.452;2023-08-24T03:46:04;98418.41;;;24.84;55.00
10700;BME280;5401;41.986;21.452;2023-08-24T03:48:32;98420.03;;;24.85;54.80
10700;BME280;5401;41.986;21.452;2023-08-24T03:51:00;98417.31;;;24.85;55.24
10700;BME280;5401;41.986;21.452;2023-08-24T03:53:27;98427.13;;;24.86;55.18
10700;BME280;5401;41.986;21.452;2023-08-24T03:55:55;98420.63;;;24.69;55.60
10700;BME280;5401;41.986;21.452;2023-08-24T03:58:22;98420.50;;;24.61;55.74
10700;BME280;5401;41.986;21.452;2023-08-24T04:00:51;98422.19;;;24.57;55.70
10700;BME280;5401;41.986;21.452;2023-08-24T04:03:20;98433.38;;;24.60;56.03
10700;BME280;5401;41.986;21.452;2023-08-24T04:05:47;98425.88;;;24.66;56.03
10700;BME280;5401;41.986;21.452;2023-08-24T04:08:15;98424.09;;;24.74;55.84
10700;BME280;5401;41.986;21.452;2023-08-24T04:10:43;98434.13;;;24.79;55.94
10700;BME280;5401;41.986;21.452;2023-08-24T04:13:13;98439.72;;;24.87;55.74
10700;BME280;5401;41.986;21.452;2023-08-24T04:15:43;98443.16;;;25.11;55.57
10700;BME280;5401;41.986;21.452;2023-08-24T04:18:12;98436.78;;;25.42;54.99
10700;BME280;5401;41.986;21.452;2023-08-24T04:20:40;98439.63;;;25.77;54.40
10700;BME280;5401;41.986;21.452;2023-08-24T04:23:07;98437.09;;;26.16;53.78
10700;BME280;5401;41.986;21.452;2023-08-24T04:25:39;98441.47;;;26.52;53.72
10700;BME280;5401;41.986;21.452;2023-08-24T04:28:07;98439.22;;;26.97;52.80
10700;BME280;5401;41.986;21.452;2023-08-24T04:30:34;98434.63;;;27.44;51.60
10700;BME280;5401;41.986;21.452;2023-08-24T04:33:02;98444.31;;;27.89;51.13
10700;BME280;5401;41.986;21.452;2023-08-24T04:35:33;98451.53;;;28.40;50.24
10700;BME280;5401;41.986;21.452;2023-08-24T04:38:01;98458.00;;;28.86;49.44
10700;BME280;5401;41.986;21.452;2023-08-24T04:40:29;98463.50;;;29.19;48.62
10700;BME280;5401;41.986;21.452;2023-08-24T04:42:56;98456.66;;;29.62;47.75
10700;BME280;5401;41.986;21.452;2023-08-24T04:45:24;98468.25;;;30.13;47.22
10700;BME280;5401;41.986;21.452;2023-08-24T04:47:51;98445.31;;;30.61;46.79
10700;BME280;5401;41.986;21.452;2023-08-24T04:50:19;98455.88;;;31.00;45.64
10700;BME280;5401;41.986;21.452;2023-08-24T04:52:48;98445.63;;;31.44;45.16
10700;BME280;5401;41.986;21.452;2023-08-24T04:55:15;98456.66;;;31.88;44.56
10700;BME280;5401;41.986;21.452;2023-08-24T04:57:43;98465.50;;;32.17;43.81
10700;BME280;5401;41.986;21.452;2023-08-24T05:00:11;98462.25;;;32.51;43.77
10700;BME280;5401;41.986;21.452;2023-08-24T05:02:42;98476.84;;;32.87;42.96
10700;BME280;5401;41.986;21.452;2023-08-24T05:05:09;98482.41;;;33.29;42.10
10700;BME280;5401;41.986;21.452;2023-08-24T05:07:38;98486.13;;;33.48;41.96
10700;BME280;5401;41.986;21.452;2023-08-24T05:10:07;98495.50;;;33.86;41.32
10700;BME280;5401;41.986;21.452;2023-08-24T05:12:35;98490.91;;;34.24;40.61
10700;BME280;5401;41.986;21.452;2023-08-24T05:15:03;98493.94;;;34.50;40.30
10700;BME280;5401;41.986;21.452;2023-08-24T05:17:30;98491.22;;;34.72;39.94
10700;BME280;5401;41.986;21.452;2023-08-24T05:19:58;98495.25;;;35.09;39.26
10700;BME280;5401;41.986;21.452;2023-08-24T05:22:26;98492.66;;;35.19;38.94
10700;BME280;5401;41.986;21.452;2023-08-24T05:24:53;98494.69;;;35.41;39.02
10700;BME280;5401;41.986;21.452;2023-08-24T05:27:22;98489.47;;;35.58;38.36
10700;BME280;5401;41.986;21.452;2023-08-24T05:29:49;98498.34;;;35.64;38.58
10700;BME280;5401;41.986;21.452;2023-08-24T05:32:17;98492.63;;;35.75;38.32
10700;BME280;5401;41.986;21.452;2023-08-24T05:34:45;98496.78;;;35.66;38.74
10700;BME280;5401;41.986;21.452;2023-08-24T05:37:12;98481.22;;;35.65;38.88
10700;BME280;5401;41.986;21.452;2023-08-24T05:39:40;98488.47;;;35.47;39.01
10700;BME280;5401;41.986;21.452;2023-08-24T05:42:08;98484.44;;;35.45;39.24
10700;BME280;5401;41.986;21.452;2023-08-24T05:44:37;98481.44;;;35.53;38.94
10700;BME280;5401;41.986;21.452;2023-08-24T05:47:05;98488.25;;;35.56;38.85
10700;BME280;5401;41.986;21.452;2023-08-24T05:49:33;98493.50;;;35.61;38.26
10700;BME280;5401;41.986;21.452;2023-08-24T05:52:00;98488.41;;;35.66;38.31
10700;BME280;5401;41.986;21.452;2023-08-24T05:54:27;98486.94;;;35.50;38.26
10700;BME280;5401;41.986;21.452;2023-08-24T05:56:55;98487.09;;;35.38;38.53
10700;BME280;5401;41.986;21.452;2023-08-24T05:59:26;98486.91;;;35.28;38.55
10700;BME280;5401;41.986;21.452;2023-08-24T06:01:55;98489.97;;;35.23;38.70
10700;BME280;5401;41.986;21.452;2023-08-24T06:04:23;98486.09;;;35.27;38.63
10700;BME280;5401;41.986;21.452;2023-08-24T06:06:50;98486.56;;;35.51;38.55
10700;BME280;5401;41.986;21.452;2023-08-24T06:09:18;98477.19;;;35.63;38.06
10700;BME280;5401;41.986;21.452;2023-08-24T06:11:45;98488.19;;;35.74;37.83
10700;BME280;5401;41.986;21.452;2023-08-24T06:14:13;98483.75;;;35.70;37.59
10700;BME280;5401;41.986;21.452;2023-08-24T06:16:41;98492.72;;;35.82;37.48
10700;BME280;5401;41.986;21.452;2023-08-24T06:19:10;98492.00;;;35.66;37.44
10700;BME280;5401;41.986;21.452;2023-08-24T06:21:38;98496.94;;;35.73;38.23
10700;BME280;5401;41.986;21.452;2023-08-24T06:24:05;98494.28;;;36.02;37.65
10700;BME280;5401;41.986;21.452;2023-08-24T06:26:33;98501.31;;;36.44;37.45
10700;BME280;5401;41.986;21.452;2023-08-24T06:29:00;98492.72;;;36.52;36.84
10700;BME280;5401;41.986;21.452;2023-08-24T06:31:28;98491.94;;;36.55;36.96
10700;BME280;5401;41.986;21.452;2023-08-24T06:33:57;98488.06;;;36.89;36.69
10700;BME280;5401;41.986;21.452;2023-08-24T06:36:26;98488.81;;;37.15;36.23
10700;BME280;5401;41.986;21.452;2023-08-24T06:38:54;98472.91;;;37.19;35.95
10700;BME280;5401;41.986;21.452;2023-08-24T06:41:22;98490.38;;;37.12;36.18
10700;BME280;5401;41.986;21.452;2023-08-24T06:43:49;98491.00;;;37.32;36.21
10700;BME280;5401;41.986;21.452;2023-08-24T06:46:17;98483.13;;;37.08;36.02
10700;BME280;5401;41.986;21.452;2023-08-24T06:48:45;98493.53;;;36.82;36.33
10700;BME280;5401;41.986;21.452;2023-08-24T06:51:12;98488.16;;;36.67;36.29
10700;BME280;5401;41.986;21.452;2023-08-24T06:53:41;98465.47;;;36.46;36.88
10700;BME280;5401;41.986;21.452;2023-08-24T06:56:11;98483.94;;;36.54;36.48
10700;BME280;5401;41.986;21.452;2023-08-24T06:58:38;98485.03;;;36.72;36.06
10700;BME280;5401;41.986;21.452;2023-08-24T07:01:06;98476.69;;;37.04;35.96
10700;BME280;5401;41.986;21.452;2023-08-24T07:03:33;98480.94;;;37.24;36.12
10700;BME280;5401;41.986;21.452;2023-08-24T07:06:01;98478.13;;;37.56;35.63
10700;BME280;5401;41.986;21.452;2023-08-24T07:08:28;98483.13;;;37.77;35.57
10700;BME280;5401;41.986;21.452;2023-08-24T07:10:57;98460.03;;;37.86;35.01
10700;BME280;5401;41.986;21.452;2023-08-24T07:13:25;98466.63;;;38.04;35.09
10700;BME280;5401;41.986;21.452;2023-08-24T07:15:52;98471.50;;;38.14;34.86
10700;BME280;5401;41.986;21.452;2023-08-24T07:18:21;98470.78;;;38.24;34.91
10700;BME280;5401;41.986;21.452;2023-08-24T07:20:49;98473.97;;;38.26;34.68
10700;BME280;5401;41.986;21.452;2023-08-24T07:23:16;98471.03;;;38.09;34.79
10700;BME280;5401;41.986;21.452;2023-08-24T07:25:44;98463.59;;;38.30;34.46
10700;BME280;5401;41.986;21.452;2023-08-24T07:28:12;98473.06;;;38.65;34.09
10700;BME280;5401;41.986;21.452;2023-08-24T07:30:40;98461.56;;;38.84;33.96
10700;BME280;5401;41.986;21.452;2023-08-24T07:33:07;98461.63;;;38.94;33.83
10700;BME280;5401;41.986;21.452;2023-08-24T07:35:35;98460.50;;;39.09;33.60
10700;BME280;5401;41.986;21.452;2023-08-24T07:38:03;98464.47;;;39.01;33.62
10700;BME280;5401;41.986;21.452;2023-08-24T07:40:30;98458.41;;;38.92;33.38
10700;BME280;5401;41.986;21.452;2023-08-24T07:42:58;98458.38;;;38.85;33.61
10700;BME280;5401;41.986;21.452;2023-08-24T07:45:28;98463.97;;;38.82;33.75
10700;BME280;5401;41.986;21.452;2023-08-24T07:47:55;98462.44;;;38.98;33.65
10700;BME280;5401;41.986;21.452;2023-08-24T07:50:22;98459.75;;;39.22;33.29
10700;BME280;5401;41.986;21.452;2023-08-24T07:52:50;98460.19;;;39.34;33.10
10700;BME280;5401;41.986;21.452;2023-08-24T07:55:18;98453.44;;;39.56;32.83
10700;BME280;5401;41.986;21.452;2023-08-24T07:57:46;98452.28;;;39.74;32.62
10700;BME280;5401;41.986;21.452;2023-08-24T08:00:15;98444.28;;;39.80;32.61
10700;BME280;5401;41.986;21.452;2023-08-24T08:02:44;98446.28;;;39.83;32.53
10700;BME280;5401;41.986;21.452;2023-08-24T08:05:11;98441.88;;;39.96;32.36
10700;BME280;5401;41.986;21.452;2023-08-24T08:07:39;98444.69;;;40.27;32.21
10700;BME280;5401;41.986;21.452;2023-08-24T08:10:07;98445.44;;;40.58;32.14
10700;BME280;5401;41.986;21.452;2023-08-24T08:12:35;98446.25;;;40.59;31.73
10700;BME280;5401;41.986;21.452;2023-08-24T08:15:03;98448.66;;;40.50;32.12
10700;BME280;5401;41.986;21.452;2023-08-24T08:17:30;98435.03;;;40.42;32.06
10700;BME280;5401;41.986;21.452;2023-08-24T08:20:01;98442.28;;;40.29;31.90
10700;BME280;5401;41.986;21.452;2023-08-24T08:22:29;98438.28;;;40.40;31.94
10700;BME280;5401;41.986;21.452;2023-08-24T08:25:01;98436.63;;;40.56;31.77
10700;BME280;5401;41.986;21.452;2023-08-24T08:27:29;98428.97;;;40.71;31.45
10700;BME280;5401;41.986;21.452;2023-08-24T08:29:56;98425.72;;;40.79;31.34
10700;BME280;5401;41.986;21.452;2023-08-24T08:32:24;98410.09;;;40.75;31.39
10700;BME280;5401;41.986;21.452;2023-08-24T08:34:53;98413.28;;;40.87;31.26
10700;BME280;5401;41.986;21.452;2023-08-24T08:37:24;98420.09;;;40.82;31.31
10700;BME280;5401;41.986;21.452;2023-08-24T08:39:51;98416.50;;;40.72;31.47
10700;BME280;5401;41.986;21.452;2023-08-24T08:42:19;98407.28;;;40.68;31.57
10700;BME280;5401;41.986;21.452;2023-08-24T08:44:46;98418.91;;;40.77;31.57
10700;BME280;5401;41.986;21.452;2023-08-24T08:47:14;98408.44;;;40.87;31.34
10700;BME280;5401;41.986;21.452;2023-08-24T08:49:43;98405.19;;;40.99;31.07
10700;BME280;5401;41.986;21.452;2023-08-24T08:52:11;98405.16;;;41.03;30.96
10700;BME280;5401;41.986;21.452;2023-08-24T08:54:40;98403.16;;;40.96;30.79
10700;BME280;5401;41.986;21.452;2023-08-24T08:57:08;98396.00;;;40.78;31.29
10700;BME280;5401;41.986;21.452;2023-08-24T08:59:35;98393.63;;;40.73;31.20
10700;BME280;5401;41.986;21.452;2023-08-24T09:02:03;98394.84;;;40.69;31.13
10700;BME280;5401;41.986;21.452;2023-08-24T09:04:32;98394.13;;;40.51;31.06
10700;BME280;5401;41.986;21.452;2023-08-24T09:07:00;98388.91;;;40.36;31.33
10700;BME280;5401;41.986;21.452;2023-08-24T09:09:33;98380.91;;;40.27;31.33
10700;BME280;5401;41.986;21.452;2023-08-24T09:12:04;98388.19;;;40.04;31.33
10700;BME280;5401;41.986;21.452;2023-08-24T09:14:33;98370.53;;;39.86;31.44
10700;BME280;5401;41.986;21.452;2023-08-24T09:17:01;98374.13;;;39.73;31.52
10700;BME280;5401;41.986;21.452;2023-08-24T09:19:29;98372.94;;;39.60;31.74
10700;BME280;5401;41.986;21.452;2023-08-24T09:21:57;98380.97;;;39.86;31.51
10700;BME280;5401;41.986;21.452;2023-08-24T09:24:31;98380.13;;;40.09;31.11
10700;BME280;5401;41.986;21.452;2023-08-24T09:26:59;98373.72;;;40.40;31.05
10700;BME280;5401;41.986;21.452;2023-08-24T09:29:36;98375.94;;;40.76;30.68
10700;BME280;5401;41.986;21.452;2023-08-24T09:32:04;98369.03;;;41.01;30.52
10700;BME280;5401;41.986;21.452;2023-08-24T09:34:36;98365.69;;;41.20;30.03
10700;BME280;5401;41.986;21.452;2023-08-24T09:37:04;98363.22;;;41.36;29.73
10700;BME280;5401;41.986;21.452;2023-08-24T09:39:32;98357.97;;;41.41;29.68
10700;BME280;5401;41.986;21.452;2023-08-24T09:42:00;98349.19;;;41.29;29.34
10700;BME280;5401;41.986;21.452;2023-08-24T09:44:30;98355.28;;;41.20;29.50
10700;BME280;5401;41.986;21.452;2023-08-24T09:46:58;98350.88;;;41.16;29.60
10700;BME280;5401;41.986;21.452;2023-08-24T09:49:28;98346.00;;;41.27;29.19
10700;BME280;5401;41.986;21.452;2023-08-24T09:51:56;98343.00;;;41.51;29.06
10700;BME280;5401;41.986;21.452;2023-08-24T09:54:26;98338.09;;;41.65;29.09
10700;BME280;5401;41.986;21.452;2023-08-24T09:56:55;98329.84;;;41.41;28.86
10700;BME280;5401;41.986;21.452;2023-08-24T09:59:24;98311.72;;;41.46;28.89
10700;BME280;5401;41.986;21.452;2023-08-24T10:01:55;98321.56;;;41.71;28.79
10700;BME280;5401;41.986;21.452;2023-08-24T10:04:24;98322.91;;;41.49;28.66
10700;BME280;5401;41.986;21.452;2023-08-24T10:07:00;98313.59;;;41.62;28.39
10700;BME280;5401;41.986;21.452;2023-08-24T10:09:33;98309.00;;;41.82;28.49
10700;BME280;5401;41.986;21.452;2023-08-24T10:12:04;98311.63;;;42.03;28.19
10700;BME280;5401;41.986;21.452;2023-08-24T10:14:35;98311.47;;;42.17;27.91
10700;BME280;5401;41.986;21.452;2023-08-24T10:17:09;98293.19;;;42.31;27.84
10700;BME280;5401;41.986;21.452;2023-08-24T10:19:38;98291.50;;;42.41;27.71
10700;BME280;5401;41.986;21.452;2023-08-24T10:22:07;98289.88;;;42.40;27.62
10700;BME280;5401;41.986;21.452;2023-08-24T10:24:35;98292.78;;;42.29;27.69
10700;BME280;5401;41.986;21.452;2023-08-24T10:27:04;98287.16;;;42.29;27.52
10700;BME280;5401;41.986;21.452;2023-08-24T10:29:32;98282.69;;;42.32;27.56
10700;BME280;5401;41.986;21.452;2023-08-24T10:32:01;98285.75;;;42.15;27.54
10700;BME280;5401;41.986;21.452;2023-08-24T10:34:30;98267.03;;;41.98;27.72
10700;BME280;5401;41.986;21.452;2023-08-24T10:37:07;98267.47;;;41.93;27.63
10700;BME280;5401;41.986;21.452;2023-08-24T10:39:35;98265.41;;;41.97;27.62
10700;BME280;5401;41.986;21.452;2023-08-24T10:42:10;98252.06;;;42.08;27.55
10700;BME280;5401;41.986;21.452;2023-08-24T10:44:38;98254.97;;;42.30;27.54
10700;BME280;5401;41.986;21.452;2023-08-24T10:47:14;98250.34;;;42.50;27.35
10700;BME280;5401;41.986;21.452;2023-08-24T10:49:44;98241.19;;;42.69;27.09
10700;BME280;5401;41.986;21.452;2023-08-24T10:52:21;98223.66;;;42.84;26.81
10700;BME280;5401;41.986;21.452;2023-08-24T10:54:50;98217.06;;;42.94;26.79
10700;BME280;5401;41.986;21.452;2023-08-24T10:57:19;98220.63;;;42.98;26.62
10700;BME280;5401;41.986;21.452;2023-08-24T10:59:58;98224.38;;;42.92;26.88
10700;BME280;5401;41.986;21.452;2023-08-24T11:02:26;98220.06;;;42.84;26.79
10700;BME280;5401;41.986;21.452;2023-08-24T11:05:16;98208.19;;;42.69;26.69
10700;BME280;5401;41.986;21.452;2023-08-24T11:07:51;98206.34;;;42.56;26.90
10700;BME280;5401;41.986;21.452;2023-08-24T11:10:19;98196.06;;;42.46;26.86
10700;BME280;5401;41.986;21.452;2023-08-24T11:13:06;98216.56;;;42.14;27.04
10700;BME280;5401;41.986;21.452;2023-08-24T11:15:37;98203.66;;;41.83;27.35
10700;BME280;5401;41.986;21.452;2023-08-24T11:18:12;98189.13;;;41.88;27.02
10700;BME280;5401;41.986;21.452;2023-08-24T11:20:44;98196.28;;;41.96;26.98
10700;BME280;5401;41.986;21.452;2023-08-24T11:23:12;98193.28;;;41.77;27.14
10700;BME280;5401;41.986;21.452;2023-08-24T11:25:40;98189.00;;;41.65;26.99
10700;BME280;5401;41.986;21.452;2023-08-24T11:28:08;98194.84;;;41.81;27.12
10700;BME280;5401;41.986;21.452;2023-08-24T11:30:35;98176.91;;;42.01;26.79
10700;BME280;5401;41.986;21.452;2023-08-24T11:33:03;98187.03;;;42.28;26.37
10700;BME280;5401;41.986;21.452;2023-08-24T11:35:35;98194.72;;;42.54;26.22
10700;BME280;5401;41.986;21.452;2023-08-24T11:38:04;98207.31;;;42.76;26.37
10700;BME280;5401;41.986;21.452;2023-08-24T11:40:32;98208.59;;;42.68;26.10
10700;BME280;5401;41.986;21.452;2023-08-24T11:43:00;98207.22;;;42.53;26.36
10700;BME280;5401;41.986;21.452;2023-08-24T11:45:30;98209.88;;;42.34;26.51
10700;BME280;5401;41.986;21.452;2023-08-24T11:47:59;98204.63;;;42.06;26.60
10700;BME280;5401;41.986;21.452;2023-08-24T11:50:27;98202.59;;;41.70;26.68
10700;BME280;5401;41.986;21.452;2023-08-24T11:52:54;98203.00;;;41.29;26.98
10700;BME280;5401;41.986;21.452;2023-08-24T11:55:23;98211.41;;;40.82;27.10
10700;BME280;5401;41.986;21.452;2023-08-24T11:57:51;98220.88;;;40.41;27.48
10700;BME280;5401;41.986;21.452;2023-08-24T12:00:20;98230.66;;;40.02;27.69
10700;BME280;5401;41.986;21.452;2023-08-24T12:02:48;98233.53;;;39.54;28.14
10700;BME280;5401;41.986;21.452;2023-08-24T12:05:23;98231.16;;;39.11;28.67
10700;BME280;5401;41.986;21.452;2023-08-24T12:07:52;98221.88;;;38.72;29.03
10700;BME280;5401;41.986;21.452;2023-08-24T12:10:23;98213.41;;;38.38;29.84
10700;BME280;5401;41.986;21.452;2023-08-24T12:13:01;98225.63;;;37.99;30.14
10700;BME280;5401;41.986;21.452;2023-08-24T12:15:29;98234.97;;;37.60;30.83
10700;BME280;5401;41.986;21.452;2023-08-24T12:17:56;98227.69;;;37.02;30.82
10700;BME280;5401;41.986;21.452;2023-08-24T12:20:24;98224.66;;;36.38;31.75
10700;BME280;5401;41.986;21.452;2023-08-24T12:22:52;98225.63;;;35.91;32.25
10700;BME280;5401;41.986;21.452;2023-08-24T12:25:23;98220.75;;;35.56;32.99
10700;BME280;5401;41.986;21.452;2023-08-24T12:27:51;98224.91;;;35.17;33.39
10700;BME280;5401;41.986;21.452;2023-08-24T12:30:19;98215.31;;;34.89;33.90
10700;BME280;5401;41.986;21.452;2023-08-24T12:32:48;98227.63;;;34.69;34.26
10700;BME280;5401;41.986;21.452;2023-08-24T12:35:16;98214.91;;;34.46;34.73
10700;BME280;5401;41.986;21.452;2023-08-24T12:37:44;98230.22;;;34.37;35.22
10700;BME280;5401;41.986;21.452;2023-08-24T12:40:12;98221.19;;;34.24;35.70
10700;BME280;5401;41.986;21.452;2023-08-24T12:42:42;98213.53;;;33.99;36.18
10700;BME280;5401;41.986;21.452;2023-08-24T12:45:10;98202.75;;;33.79;36.60
10700;BME280;5401;41.986;21.452;2023-08-24T12:47:37;98194.63;;;33.71;36.86
10700;BME280;5401;41.986;21.452;2023-08-24T12:50:08;98194.41;;;33.60;36.91
10700;BME280;5401;41.986;21.452;2023-08-24T12:52:36;98188.50;;;33.43;37.39
10700;BME280;5401;41.986;21.452;2023-08-24T12:55:04;98191.97;;;33.40;37.68
10700;BME280;5401;41.986;21.452;2023-08-24T12:57:31;98203.38;;;33.35;37.77
